Time;durP1;ratioP1;P1;durP2;ratioP2;P2;SDS_P1;SDS_P2;PMS_P1;PMS_P2;Temp;Humidity;BMP_temperature;BMP_pressure;BME280_temperature;BME280_humidity;BME280_pressure;Samples;Min_cycle;Max_cycle;Signal;HPM_P1;HPM_P2
2022/11/23 00:06:26;;;;;;;0.20;0.10;;;12.60;99.90;;;;;;25787129;23;20434;-73
2022/11/23 00:16:31;;;;;;;0.20;0.00;;;12.60;99.90;;;;;;25787331;23;20382;-72
2022/11/23 00:26:36;;;;;;;0.20;0.10;;;12.60;99.90;;;;;;25785989;23;20377;-71
2022/11/23 00:36:40;;;;;;;0.20;0.03;;;12.80;99.90;;;;;;25757651;23;20405;-72
2022/11/23 00:46:45;;;;;;;0.20;0.10;;;12.90;99.90;;;;;;25784817;23;20374;-71
2022/11/23 00:56:49;;;;;;;0.20;0.03;;;12.90;99.90;;;;;;25785240;23;20370;-71
2022/11/23 01:06:56;;;;;;;0.20;0.03;;;13.00;99.90;;;;;;25785833;23;20370;-71
2022/11/23 01:17:00;;;;;;;0.20;0.10;;;13.10;99.90;;;;;;25784075;23;20393;-71
2022/11/23 01:27:05;;;;;;;0.20;0.00;;;12.90;99.90;;;;;;25757171;23;20369;-71
2022/11/23 01:37:08;;;;;;;0.20;0.10;;;13.00;99.90;;;;;;25782600;23;20381;-70
2022/11/23 01:47:14;;;;;;;0.20;0.10;;;12.90;99.90;;;;;;25756392;23;20370;-72
2022/11/23 01:57:20;;;;;;;0.20;0.10;;;12.80;99.90;;;;;;25754818;23;20401;-73
2022/11/23 02:07:26;;;;;;;0.20;0.00;;;12.80;99.90;;;;;;25782747;23;20370;-72
2022/11/23 02:17:30;;;;;;;0.20;0.10;;;12.80;99.90;;;;;;25782217;23;20373;-73
2022/11/23 02:27:37;;;;;;;0.20;0.10;;;12.80;99.90;;;;;;25779441;23;20385;-73
2022/11/23 02:37:46;;;;;;;0.20;0.10;;;12.80;99.90;;;;;;25781830;23;20366;-72
2022/11/23 02:47:51;;;;;;;0.20;0.03;;;12.80;99.90;;;;;;25754294;23;20362;-73
2022/11/23 02:57:55;;;;;;;0.20;0.10;;;13.00;99.90;;;;;;25737080;23;20385;-71
2022/11/23 03:08:00;;;;;;;0.20;0.10;;;13.00;99.90;;;;;;25761362;23;20358;-71
2022/11/23 03:18:04;;;;;;;0.20;0.10;;;12.90;99.90;;;;;;25790010;23;20378;-72
2022/11/23 03:28:09;;;;;;;0.20;0.00;;;12.80;99.90;;;;;;25788682;23;20380;-72
2022/11/23 03:38:13;;;;;;;0.20;0.10;;;12.80;99.90;;;;;;25786736;23;20381;-73
2022/11/23 03:48:18;;;;;;;0.20;0.10;;;12.80;99.90;;;;;;25788305;23;20362;-73
2022/11/23 03:58:22;;;;;;;0.20;0.10;;;12.90;99.90;;;;;;25788432;23;20370;-73
2022/11/23 04:08:27;;;;;;;0.20;0.10;;;12.90;99.90;;;;;;25787328;23;20370;-71
2022/11/23 04:18:31;;;;;;;0.20;0.10;;;12.90;99.90;;;;;;25786121;23;20373;-71
2022/11/23 04:28:36;;;;;;;0.20;0.10;;;13.00;99.90;;;;;;25758930;23;20372;-70
2022/11/23 04:38:40;;;;;;;0.20;0.10;;;13.00;99.90;;;;;;25759165;23;20385;-70
2022/11/23 04:48:45;;;;;;;0.20;0.00;;;13.00;99.90;;;;;;25786259;23;20377;-70
2022/11/23 04:58:49;;;;;;;0.20;0.10;;;13.30;99.90;;;;;;25758632;23;20432;-71
2022/11/23 05:08:54;;;;;;;0.20;0.10;;;13.20;99.90;;;;;;25781757;23;20389;-71
2022/11/23 05:18:58;;;;;;;0.20;0.07;;;13.40;99.90;;;;;;25782813;23;20485;-71
2022/11/23 05:29:03;;;;;;;0.20;0.10;;;13.70;99.90;;;;;;25758167;23;20716;-71
2022/11/23 05:39:07;;;;;;;0.20;0.08;;;13.50;99.90;;;;;;25780243;23;20365;-71
2022/11/23 05:49:12;;;;;;;0.20;0.05;;;13.80;99.90;;;;;;25783996;23;20807;-71
2022/11/23 05:59:16;;;;;;;0.20;0.10;;;13.60;99.90;;;;;;25753165;23;20378;-71
2022/11/23 06:09:21;;;;;;;0.20;0.10;;;13.30;99.90;;;;;;25782792;23;20361;-72
2022/11/23 06:19:25;;;;;;;0.20;0.10;;;13.20;99.90;;;;;;25781340;23;20408;-71
2022/11/23 06:29:30;;;;;;;0.20;0.10;;;13.30;99.90;;;;;;25780528;23;20370;-72
2022/11/23 06:39:35;;;;;;;0.20;0.10;;;13.30;99.90;;;;;;25778579;23;20370;-71
2022/11/23 06:49:40;;;;;;;0.20;0.10;;;13.40;99.90;;;;;;25776673;23;20370;-74
2022/11/23 06:59:45;;;;;;;0.20;0.00;;;13.70;99.90;;;;;;25744877;23;20492;-73
2022/11/23 07:09:50;;;;;;;0.20;0.10;;;14.00;99.90;;;;;;25746710;23;20370;-72
2022/11/23 07:19:58;;;;;;;0.20;0.10;;;13.90;99.90;;;;;;25749841;23;20417;-71
2022/11/23 07:30:05;;;;;;;0.20;0.10;;;14.00;99.90;;;;;;25777433;23;20370;-72
2022/11/23 07:40:09;;;;;;;0.20;0.10;;;14.20;99.90;;;;;;25758305;23;20378;-71
2022/11/23 07:50:15;;;;;;;0.20;0.10;;;14.70;99.90;;;;;;25783283;23;20369;-72
2022/11/23 08:00:19;;;;;;;0.20;0.07;;;15.20;99.90;;;;;;25784871;23;20377;-70
2022/11/23 08:10:24;;;;;;;0.20;0.10;;;15.40;99.90;;;;;;25781424;23;20369;-71
2022/11/23 08:20:29;;;;;;;0.20;0.00;;;15.30;99.90;;;;;;25782054;23;20378;-73
2022/11/23 08:30:35;;;;;;;0.20;0.10;;;15.50;99.90;;;;;;25781601;23;20370;-72
2022/11/23 08:40:39;;;;;;;0.20;0.10;;;15.80;99.90;;;;;;25730873;23;20389;-72
2022/11/23 08:50:44;;;;;;;0.20;0.10;;;15.90;99.90;;;;;;25756449;23;20366;-70
2022/11/23 09:00:48;;;;;;;0.20;0.10;;;16.10;99.90;;;;;;25754409;23;20382;-77
2022/11/23 09:10:53;;;;;;;0.20;0.00;;;16.80;99.90;;;;;;25782951;23;20362;-71
2022/11/23 09:20:57;;;;;;;0.20;0.10;;;17.40;99.90;;;;;;25781262;23;20381;-72
2022/11/23 09:31:04;;;;;;;0.20;0.10;;;17.70;99.90;;;;;;25757364;23;20362;-72
2022/11/23 09:41:27;;;;;;;0.20;0.10;;;17.60;99.90;;;;;;25753850;23;20378;-75
2022/11/23 09:51:37;;;;;;;0.20;0.10;;;17.70;99.90;;;;;;25750899;23;20709;-77
2022/11/23 10:01:41;;;;;;;0.20;0.00;;;18.30;99.90;;;;;;25778815;23;20370;-74
2022/11/23 10:12:04;;;;;;;0.20;0.00;;;19.20;99.90;;;;;;25779618;23;20404;-74
2022/11/23 10:22:15;;;;;;;0.20;0.00;;;19.60;99.90;;;;;;25778990;23;20377;-79
2022/11/23 10:32:27;;;;;;;0.20;0.07;;;20.10;99.90;;;;;;25752725;23;20370;-76
2022/11/23 10:42:36;;;;;;;0.20;0.00;;;20.00;99.90;;;;;;25777025;23;20373;-77
2022/11/23 10:52:51;;;;;;;0.20;0.00;;;19.80;99.90;;;;;;25774556;23;20362;-75
2022/11/23 11:02:57;;;;;;;0.20;0.00;;;20.10;99.90;;;;;;25778113;23;20370;-79
2022/11/23 11:13:03;;;;;;;0.20;0.10;;;20.20;99.90;;;;;;25784936;23;20358;-75
2022/11/23 11:23:17;;;;;;;0.20;0.00;;;20.40;99.90;;;;;;25760058;23;20401;-76
2022/11/23 11:33:29;;;;;;;0.20;0.10;;;20.50;99.90;;;;;;25785604;23;20362;-74
2022/11/23 11:43:42;;;;;;;0.20;0.00;;;21.00;99.90;;;;;;25784251;23;20397;-74
2022/11/23 11:53:54;;;;;;;0.20;0.00;;;20.60;99.90;;;;;;25756917;23;20370;-76
2022/11/23 12:04:05;;;;;;;0.20;0.00;;;21.30;99.90;;;;;;25755660;23;20995;-74
2022/11/23 12:14:14;;;;;;;0.20;0.00;;;23.40;99.90;;;;;;25783540;23;20369;-74
2022/11/23 12:24:26;;;;;;;0.20;0.00;;;21.50;99.90;;;;;;25783102;23;20369;-73
2022/11/23 12:34:47;;;;;;;0.20;0.10;;;21.00;99.90;;;;;;25781440;23;20366;-77
2022/11/23 12:45:05;;;;;;;0.20;0.10;;;19.80;99.90;;;;;;25781327;23;20370;-77
2022/11/23 12:55:21;;;;;;;0.20;0.00;;;19.50;99.90;;;;;;25754906;23;20365;-75
2022/11/23 13:05:56;;;;;;;0.20;0.00;;;19.70;99.90;;;;;;25783063;23;20374;-76
2022/11/23 13:16:19;;;;;;;0.20;0.10;;;19.00;99.90;;;;;;25754830;23;20362;-77
2022/11/23 13:26:26;;;;;;;0.20;0.07;;;19.20;99.90;;;;;;25753430;23;20378;-79
2022/11/23 13:36:58;;;;;;;0.20;0.10;;;19.20;99.90;;;;;;25774507;23;20373;-76
2022/11/23 13:47:20;;;;;;;0.20;0.00;;;19.40;99.90;;;;;;25749890;23;20423;-75
2022/11/23 13:57:26;;;;;;;0.20;0.00;;;20.20;99.90;;;;;;25777187;23;20366;-75
2022/11/23 14:07:37;;;;;;;0.20;0.00;;;21.30;99.90;;;;;;25749807;23;20362;-74
2022/11/23 14:18:03;;;;;;;0.20;0.00;;;21.60;99.90;;;;;;25776090;23;20393;-72
2022/11/23 14:28:18;;;;;;;0.20;0.00;;;22.50;99.90;;;;;;25775148;23;20441;-71
2022/11/23 14:38:41;;;;;;;0.20;0.00;;;21.80;99.90;;;;;;25776325;23;20378;-72
2022/11/23 14:48:46;;;;;;;0.20;0.00;;;20.90;99.90;;;;;;25724010;23;20365;-72
2022/11/23 14:58:51;;;;;;;0.20;0.00;;;21.40;99.90;;;;;;25748497;23;20385;-72
2022/11/23 15:09:04;;;;;;;0.20;0.00;;;22.00;99.90;;;;;;25747160;23;20370;-73
2022/11/23 15:19:20;;;;;;;0.20;0.05;;;22.80;99.90;;;;;;25773816;23;20449;-73
2022/11/23 15:29:31;;;;;;;0.20;0.00;;;20.10;99.90;;;;;;25772232;23;20358;-74
2022/11/23 15:39:38;;;;;;;0.20;0.03;;;19.30;99.90;;;;;;25771079;23;20449;-71
2022/11/23 15:49:42;;;;;;;0.20;0.00;;;18.50;99.90;;;;;;25748292;23;20457;-70
2022/11/23 15:59:50;;;;;;;0.20;0.10;;;18.40;99.90;;;;;;25777053;23;20385;-72
2022/11/23 16:10:14;;;;;;;0.20;0.10;;;17.90;99.90;;;;;;25749876;23;20377;-72
2022/11/23 16:20:22;;;;;;;0.20;0.10;;;17.40;99.90;;;;;;25777568;23;20389;-70
2022/11/23 16:30:36;;;;;;;0.20;0.10;;;17.00;99.90;;;;;;25751228;23;20445;-73
2022/11/23 16:40:42;;;;;;;0.20;0.00;;;16.90;99.90;;;;;;25750164;23;20377;-72
2022/11/23 16:50:46;;;;;;;0.20;0.00;;;16.90;99.90;;;;;;25775994;23;20353;-73
2022/11/23 17:00:52;;;;;;;0.20;0.10;;;16.70;99.90;;;;;;25751424;23;20378;-71
2022/11/23 17:10:56;;;;;;;0.20;0.10;;;16.70;99.90;;;;;;25775511;23;20372;-70
2022/11/23 17:21:01;;;;;;;0.20;0.10;;;16.80;99.90;;;;;;25776989;23;20377;-69
2022/11/23 17:31:05;;;;;;;0.20;0.00;;;16.70;99.90;;;;;;25779757;23;20366;-73
2022/11/23 17:41:12;;;;;;;0.20;0.10;;;16.50;99.90;;;;;;25727030;23;20382;-72
2022/11/23 17:51:15;;;;;;;0.20;0.10;;;16.60;99.90;;;;;;25752381;23;20358;-73
2022/11/23 18:01:22;;;;;;;0.20;0.10;;;16.50;99.90;;;;;;25752687;23;20385;-72
2022/11/23 18:11:27;;;;;;;0.20;0.10;;;16.40;99.90;;;;;;25775768;23;20373;-74
2022/11/23 18:21:32;;;;;;;0.37;0.37;;;16.30;99.90;;;;;;25771552;23;20381;-71
2022/11/23 18:31:36;;;;;;;0.20;0.10;;;16.20;99.90;;;;;;25745757;23;20374;-71
2022/11/23 18:41:41;;;;;;;0.20;0.10;;;16.00;99.90;;;;;;25743587;23;20398;-73
2022/11/23 18:51:45;;;;;;;0.20;0.10;;;16.00;99.90;;;;;;25746132;23;20431;-72
2022/11/23 19:01:50;;;;;;;0.20;0.03;;;16.00;99.90;;;;;;25742878;23;20365;-70
2022/11/23 19:11:54;;;;;;;0.20;0.10;;;15.90;99.90;;;;;;25739853;23;20373;-72
2022/11/23 19:22:00;;;;;;;0.20;0.10;;;16.00;99.90;;;;;;25743099;23;20373;-71
2022/11/23 19:32:05;;;;;;;0.20;0.05;;;15.80;99.90;;;;;;25776436;23;20377;-70
2022/11/23 19:42:11;;;;;;;0.20;0.05;;;15.60;99.90;;;;;;25753710;23;20382;-71
2022/11/23 19:52:15;;;;;;;0.20;0.10;;;14.70;99.90;;;;;;25751822;23;20373;-72
2022/11/23 20:02:25;;;;;;;0.20;0.10;;;15.50;99.90;;;;;;25780485;23;20377;-72
2022/11/23 20:12:29;;;;;;;0.20;0.10;;;15.80;99.90;;;;;;25778950;23;20362;-72
2022/11/23 20:22:34;;;;;;;0.20;0.10;;;15.20;99.90;;;;;;25753955;23;20369;-71
2022/11/23 20:32:38;;;;;;;0.20;0.10;;;14.80;99.90;;;;;;25778774;23;20377;-72
2022/11/23 20:42:44;;;;;;;0.20;0.10;;;14.90;99.90;;;;;;25752563;23;20374;-71
2022/11/23 20:52:48;;;;;;;0.20;0.10;;;14.80;99.90;;;;;;25778867;23;20400;-71
2022/11/23 21:02:55;;;;;;;0.20;0.07;;;14.60;99.90;;;;;;25753213;23;20377;-72
2022/11/23 21:23:21;;;;;;;0.20;0.10;;;15.10;99.90;;;;;;25777570;23;20370;-71
2022/11/23 21:33:25;;;;;;;0.20;0.10;;;15.30;99.90;;;;;;25750919;23;20366;-72
2022/11/23 21:43:31;;;;;;;0.20;0.10;;;15.90;99.90;;;;;;25777560;23;20370;-71
2022/11/23 21:53:37;;;;;;;0.20;0.10;;;16.00;99.90;;;;;;25748832;23;20382;-71
2022/11/23 22:03:43;;;;;;;0.20;0.10;;;16.20;99.90;;;;;;25779003;23;20381;-71
2022/11/23 22:13:47;;;;;;;0.20;0.10;;;16.20;99.90;;;;;;25751479;23;20380;-72
2022/11/23 22:23:53;;;;;;;0.20;0.10;;;16.30;99.90;;;;;;25780444;23;20378;-71
2022/11/23 22:33:56;;;;;;;0.20;0.10;;;15.60;99.90;;;;;;25753095;22;20373;-72
2022/11/23 22:44:02;;;;;;;0.20;0.10;;;15.60;99.90;;;;;;25782364;23;21183;-72
2022/11/23 22:54:06;;;;;;;0.20;0.10;;;15.70;99.90;;;;;;25781699;23;20362;-72
2022/11/23 23:04:11;;;;;;;0.20;0.03;;;15.50;99.90;;;;;;25755052;23;20385;-71
2022/11/23 23:14:15;;;;;;;0.20;0.10;;;15.40;99.90;;;;;;25759648;23;20377;-71
2022/11/23 23:24:20;;;;;;;0.20;0.10;;;15.60;99.90;;;;;;25763933;23;20385;-72
2022/11/23 23:34:24;;;;;;;0.20;0.10;;;15.60;99.90;;;;;;25788563;23;20369;-72
2022/11/23 23:44:29;;;;;;;0.20;0.10;;;15.50;99.90;;;;;;25788578;23;20409;-71
2022/11/23 23:54:34;;;;;;;0.20;0.10;;;15.50;99.90;;;;;;25763790;23;20377;-71
